South Rockwood, Michigan
Current Conditions -  °F | °C
As of 3:34 PM on Monday 24 Nov 2014 (Local Time) from KONZ Reporting Station
Overcast Overcast  
Wind Chill: 32°   Ceiling: 2600
Heat Index: 43°   Visibility: 10mi
Dew Point: 34°   Wind: 31mph
Humidity: 70%   Direction: 230°SW
Pressure: 29.4"   Gusts: 44mph
Location:  42.06°N, 83.26°W
Report Text: KONZ 242034Z AUTO 23027G38KT 10SM OVC026 06/01 A2940 RMK AO2
Loading
Personal Weather Stations






























Interactive Weather Map New forecast layout! Learn more

10-Day Weather Forecast

Advertisements
Track Severe Weather on mobile